sensor_id;sensor_type;location;lat;lon;timestamp;P1;durP1;ratioP1;P2;durP2;ratioP2
67272;SDS011;54190;49.770;9.250;2022-09-12T00:03:44;10.00;;;7.60;;
67272;SDS011;54190;49.770;9.250;2022-09-12T00:06:12;12.03;;;8.47;;
67272;SDS011;54190;49.770;9.250;2022-09-12T00:08:41;12.77;;;8.40;;
67272;SDS011;54190;49.770;9.250;2022-09-12T00:11:08;14.27;;;9.60;;
67272;SDS011;54190;49.770;9.250;2022-09-12T00:13:36;14.40;;;10.37;;
67272;SDS011;54190;49.770;9.250;2022-09-12T00:16:03;16.60;;;11.37;;
67272;SDS011;54190;49.770;9.250;2022-09-12T00:18:30;18.73;;;11.50;;
67272;SDS011;54190;49.770;9.250;2022-09-12T00:20:56;15.90;;;11.47;;
67272;SDS011;54190;49.770;9.250;2022-09-12T00:23:26;16.83;;;10.67;;
67272;SDS011;54190;49.770;9.250;2022-09-12T00:25:52;14.90;;;10.77;;
67272;SDS011;54190;49.770;9.250;2022-09-12T00:28:17;16.80;;;10.90;;
67272;SDS011;54190;49.770;9.250;2022-09-12T00:30:45;15.73;;;11.40;;
67272;SDS011;54190;49.770;9.250;2022-09-12T00:33:12;18.27;;;11.10;;
67272;SDS011;54190;49.770;9.250;2022-09-12T00:35:46;17.70;;;11.00;;
67272;SDS011;54190;49.770;9.250;2022-09-12T00:38:14;35.13;;;11.13;;
67272;SDS011;54190;49.770;9.250;2022-09-12T00:40:41;16.43;;;11.23;;
67272;SDS011;54190;49.770;9.250;2022-09-12T00:43:14;15.87;;;11.00;;
67272;SDS011;54190;49.770;9.250;2022-09-12T00:46:00;16.23;;;11.00;;
67272;SDS011;54190;49.770;9.250;2022-09-12T00:48:32;15.67;;;11.40;;
67272;SDS011;54190;49.770;9.250;2022-09-12T00:51:03;17.20;;;10.10;;
67272;SDS011;54190;49.770;9.250;2022-09-12T00:53:29;13.37;;;9.83;;
67272;SDS011;54190;49.770;9.250;2022-09-12T00:55:55;15.10;;;10.83;;
67272;SDS011;54190;49.770;9.250;2022-09-12T00:58:23;18.37;;;10.50;;
67272;SDS011;54190;49.770;9.250;2022-09-12T01:00:54;14.53;;;9.87;;
67272;SDS011;54190;49.770;9.250;2022-09-12T01:03:21;17.07;;;10.77;;
67272;SDS011;54190;49.770;9.250;2022-09-12T01:08:38;25.90;;;10.30;;
67272;SDS011;54190;49.770;9.250;2022-09-12T01:11:05;17.60;;;9.80;;
67272;SDS011;54190;49.770;9.250;2022-09-12T01:13:34;14.67;;;9.60;;
67272;SDS011;54190;49.770;9.250;2022-09-12T01:16:03;52.43;;;11.47;;
67272;SDS011;54190;49.770;9.250;2022-09-12T01:24:05;26.67;;;9.90;;
67272;SDS011;54190;49.770;9.250;2022-09-12T01:38:09;21.90;;;11.63;;
67272;SDS011;54190;49.770;9.250;2022-09-12T01:40:50;21.03;;;10.90;;
67272;SDS011;54190;49.770;9.250;2022-09-12T01:43:29;16.97;;;11.10;;
67272;SDS011;54190;49.770;9.250;2022-09-12T01:48:40;80.17;;;12.40;;
67272;SDS011;54190;49.770;9.250;2022-09-12T01:51:25;119.03;;;13.07;;
67272;SDS011;54190;49.770;9.250;2022-09-12T01:54:58;18.63;;;9.50;;
67272;SDS011;54190;49.770;9.250;2022-09-12T01:57:06;18.73;;;10.33;;
67272;SDS011;54190;49.770;9.250;2022-09-12T01:59:45;19.60;;;10.33;;
67272;SDS011;54190;49.770;9.250;2022-09-12T02:02:28;21.20;;;10.17;;
67272;SDS011;54190;49.770;9.250;2022-09-12T02:12:41;19.70;;;11.50;;
67272;SDS011;54190;49.770;9.250;2022-09-12T02:15:18;14.33;;;11.40;;
67272;SDS011;54190;49.770;9.250;2022-09-12T02:17:48;16.00;;;11.00;;
67272;SDS011;54190;49.770;9.250;2022-09-12T02:20:18;29.67;;;11.10;;
67272;SDS011;54190;49.770;9.250;2022-09-12T02:22:48;16.93;;;11.93;;
67272;SDS011;54190;49.770;9.250;2022-09-12T02:25:17;33.90;;;10.83;;
67272;SDS011;54190;49.770;9.250;2022-09-12T02:27:45;51.20;;;12.50;;
67272;SDS011;54190;49.770;9.250;2022-09-12T02:30:17;43.90;;;12.57;;
67272;SDS011;54190;49.770;9.250;2022-09-12T02:32:46;66.17;;;13.13;;
67272;SDS011;54190;49.770;9.250;2022-09-12T02:38:08;35.17;;;14.20;;
67272;SDS011;54190;49.770;9.250;2022-09-12T02:40:40;35.17;;;13.93;;
67272;SDS011;54190;49.770;9.250;2022-09-12T02:43:06;31.17;;;12.70;;
67272;SDS011;54190;49.770;9.250;2022-09-12T02:45:32;29.80;;;13.27;;
67272;SDS011;54190;49.770;9.250;2022-09-12T02:51:00;44.97;;;12.83;;
67272;SDS011;54190;49.770;9.250;2022-09-12T02:53:26;36.90;;;12.10;;
67272;SDS011;54190;49.770;9.250;2022-09-12T02:55:53;16.00;;;11.43;;
67272;SDS011;54190;49.770;9.250;2022-09-12T02:58:23;17.20;;;11.20;;
67272;SDS011;54190;49.770;9.250;2022-09-12T03:03:51;15.90;;;10.73;;
67272;SDS011;54190;49.770;9.250;2022-09-12T03:06:28;37.63;;;11.83;;
67272;SDS011;54190;49.770;9.250;2022-09-12T03:09:14;17.80;;;10.93;;
67272;SDS011;54190;49.770;9.250;2022-09-12T03:12:01;42.47;;;11.47;;
67272;SDS011;54190;49.770;9.250;2022-09-12T03:14:42;34.70;;;10.90;;
67272;SDS011;54190;49.770;9.250;2022-09-12T03:22:38;43.60;;;10.83;;
67272;SDS011;54190;49.770;9.250;2022-09-12T03:25:21;72.57;;;12.30;;
67272;SDS011;54190;49.770;9.250;2022-09-12T03:27:58;16.90;;;9.73;;
67272;SDS011;54190;49.770;9.250;2022-09-12T03:30:42;70.20;;;12.57;;
67272;SDS011;54190;49.770;9.250;2022-09-12T03:33:10;66.43;;;12.30;;
67272;SDS011;54190;49.770;9.250;2022-09-12T03:35:37;131.93;;;13.97;;
67272;SDS011;54190;49.770;9.250;2022-09-12T03:38:03;54.53;;;11.70;;
67272;SDS011;54190;49.770;9.250;2022-09-12T03:40:32;22.30;;;10.23;;
67272;SDS011;54190;49.770;9.250;2022-09-12T03:42:58;19.93;;;9.90;;
67272;SDS011;54190;49.770;9.250;2022-09-12T03:45:24;36.17;;;10.33;;
67272;SDS011;54190;49.770;9.250;2022-09-12T03:47:50;14.97;;;9.93;;
67272;SDS011;54190;49.770;9.250;2022-09-12T03:50:15;41.97;;;11.80;;
67272;SDS011;54190;49.770;9.250;2022-09-12T03:52:41;60.00;;;12.43;;
67272;SDS011;54190;49.770;9.250;2022-09-12T03:55:07;54.33;;;11.90;;
67272;SDS011;54190;49.770;9.250;2022-09-12T03:57:34;37.20;;;10.50;;
67272;SDS011;54190;49.770;9.250;2022-09-12T03:59:59;16.10;;;9.43;;
67272;SDS011;54190;49.770;9.250;2022-09-12T04:02:26;13.27;;;9.50;;
67272;SDS011;54190;49.770;9.250;2022-09-12T04:04:53;20.30;;;9.93;;
67272;SDS011;54190;49.770;9.250;2022-09-12T04:07:18;29.30;;;10.63;;
67272;SDS011;54190;49.770;9.250;2022-09-12T04:09:44;51.27;;;11.70;;
67272;SDS011;54190;49.770;9.250;2022-09-12T04:12:10;45.07;;;11.90;;
67272;SDS011;54190;49.770;9.250;2022-09-12T04:14:38;17.67;;;11.30;;
67272;SDS011;54190;49.770;9.250;2022-09-12T04:17:04;18.83;;;10.63;;
67272;SDS011;54190;49.770;9.250;2022-09-12T04:19:30;48.83;;;11.10;;
67272;SDS011;54190;49.770;9.250;2022-09-12T04:21:55;53.57;;;12.07;;
67272;SDS011;54190;49.770;9.250;2022-09-12T04:24:21;15.47;;;10.43;;
67272;SDS011;54190;49.770;9.250;2022-09-12T04:26:47;27.53;;;11.97;;
67272;SDS011;54190;49.770;9.250;2022-09-12T04:29:13;31.30;;;10.80;;
67272;SDS011;54190;49.770;9.250;2022-09-12T04:31:42;16.27;;;10.47;;
67272;SDS011;54190;49.770;9.250;2022-09-12T04:34:08;29.07;;;11.80;;
67272;SDS011;54190;49.770;9.250;2022-09-12T04:36:34;26.07;;;11.40;;
67272;SDS011;54190;49.770;9.250;2022-09-12T04:39:00;46.87;;;10.70;;
67272;SDS011;54190;49.770;9.250;2022-09-12T04:41:27;83.37;;;12.93;;
67272;SDS011;54190;49.770;9.250;2022-09-12T04:43:56;55.90;;;11.30;;
67272;SDS011;54190;49.770;9.250;2022-09-12T04:46:23;115.93;;;15.00;;
67272;SDS011;54190;49.770;9.250;2022-09-12T04:48:50;19.20;;;10.63;;
67272;SDS011;54190;49.770;9.250;2022-09-12T04:51:17;26.87;;;12.23;;
67272;SDS011;54190;49.770;9.250;2022-09-12T04:53:48;67.90;;;14.07;;
67272;SDS011;54190;49.770;9.250;2022-09-12T04:56:16;16.63;;;11.20;;
67272;SDS011;54190;49.770;9.250;2022-09-12T04:58:42;47.93;;;12.93;;
67272;SDS011;54190;49.770;9.250;2022-09-12T05:01:12;27.70;;;11.77;;
67272;SDS011;54190;49.770;9.250;2022-09-12T05:03:40;52.57;;;12.37;;
67272;SDS011;54190;49.770;9.250;2022-09-12T05:06:11;35.83;;;12.40;;
67272;SDS011;54190;49.770;9.250;2022-09-12T05:08:39;33.87;;;12.80;;
67272;SDS011;54190;49.770;9.250;2022-09-12T05:11:06;15.90;;;10.70;;
67272;SDS011;54190;49.770;9.250;2022-09-12T05:13:34;17.50;;;11.20;;
67272;SDS011;54190;49.770;9.250;2022-09-12T05:16:00;15.83;;;10.50;;
67272;SDS011;54190;49.770;9.250;2022-09-12T05:18:29;14.57;;;10.13;;
67272;SDS011;54190;49.770;9.250;2022-09-12T05:20:59;12.57;;;9.20;;
67272;SDS011;54190;49.770;9.250;2022-09-12T05:23:26;19.60;;;9.87;;
67272;SDS011;54190;49.770;9.250;2022-09-12T05:25:53;28.90;;;11.70;;
67272;SDS011;54190;49.770;9.250;2022-09-12T05:28:21;19.07;;;12.77;;
67272;SDS011;54190;49.770;9.250;2022-09-12T05:30:58;22.63;;;12.17;;
67272;SDS011;54190;49.770;9.250;2022-09-12T05:33:35;36.43;;;11.77;;
67272;SDS011;54190;49.770;9.250;2022-09-12T05:36:03;78.20;;;13.30;;
67272;SDS011;54190;49.770;9.250;2022-09-12T05:38:30;43.33;;;12.20;;
67272;SDS011;54190;49.770;9.250;2022-09-12T05:41:09;37.60;;;11.40;;
67272;SDS011;54190;49.770;9.250;2022-09-12T05:43:37;21.60;;;11.40;;
67272;SDS011;54190;49.770;9.250;2022-09-12T05:46:05;23.97;;;12.03;;
67272;SDS011;54190;49.770;9.250;2022-09-12T05:48:37;19.97;;;12.37;;
67272;SDS011;54190;49.770;9.250;2022-09-12T05:51:05;29.67;;;11.97;;
67272;SDS011;54190;49.770;9.250;2022-09-12T05:53:33;23.67;;;12.03;;
67272;SDS011;54190;49.770;9.250;2022-09-12T05:56:01;26.53;;;11.00;;
67272;SDS011;54190;49.770;9.250;2022-09-12T05:59:00;46.03;;;13.20;;
67272;SDS011;54190;49.770;9.250;2022-09-12T06:01:28;26.93;;;12.80;;
67272;SDS011;54190;49.770;9.250;2022-09-12T06:03:56;23.47;;;12.37;;
67272;SDS011;54190;49.770;9.250;2022-09-12T06:06:25;26.03;;;12.53;;
67272;SDS011;54190;49.770;9.250;2022-09-12T06:08:55;15.97;;;11.83;;
67272;SDS011;54190;49.770;9.250;2022-09-12T06:11:24;15.77;;;11.43;;
67272;SDS011;54190;49.770;9.250;2022-09-12T06:13:52;33.73;;;12.97;;
67272;SDS011;54190;49.770;9.250;2022-09-12T06:16:23;41.17;;;12.13;;
67272;SDS011;54190;49.770;9.250;2022-09-12T06:18:52;27.97;;;12.03;;
67272;SDS011;54190;49.770;9.250;2022-09-12T06:21:20;32.43;;;12.70;;
67272;SDS011;54190;49.770;9.250;2022-09-12T06:23:47;28.30;;;12.47;;
67272;SDS011;54190;49.770;9.250;2022-09-12T06:26:15;24.63;;;12.27;;
67272;SDS011;54190;49.770;9.250;2022-09-12T06:28:42;28.90;;;12.83;;
67272;SDS011;54190;49.770;9.250;2022-09-12T06:31:16;25.03;;;12.13;;
67272;SDS011;54190;49.770;9.250;2022-09-12T06:33:44;23.37;;;12.57;;
67272;SDS011;54190;49.770;9.250;2022-09-12T06:36:15;19.10;;;12.90;;
67272;SDS011;54190;49.770;9.250;2022-09-12T06:38:42;26.20;;;13.40;;
67272;SDS011;54190;49.770;9.250;2022-09-12T06:41:10;24.07;;;12.60;;
67272;SDS011;54190;49.770;9.250;2022-09-12T06:43:36;22.83;;;12.40;;
67272;SDS011;54190;49.770;9.250;2022-09-12T06:46:03;16.67;;;11.67;;
67272;SDS011;54190;49.770;9.250;2022-09-12T06:48:29;21.47;;;13.17;;
67272;SDS011;54190;49.770;9.250;2022-09-12T06:51:03;19.23;;;12.03;;
67272;SDS011;54190;49.770;9.250;2022-09-12T06:53:31;18.90;;;13.13;;
67272;SDS011;54190;49.770;9.250;2022-09-12T06:55:58;19.27;;;12.53;;
67272;SDS011;54190;49.770;9.250;2022-09-12T06:58:26;15.13;;;10.87;;
67272;SDS011;54190;49.770;9.250;2022-09-12T07:00:59;18.43;;;11.40;;
67272;SDS011;54190;49.770;9.250;2022-09-12T07:03:26;18.07;;;11.67;;
67272;SDS011;54190;49.770;9.250;2022-09-12T07:05:52;19.10;;;12.43;;
67272;SDS011;54190;49.770;9.250;2022-09-12T07:08:18;19.93;;;11.40;;
67272;SDS011;54190;49.770;9.250;2022-09-12T07:10:43;18.03;;;12.00;;
67272;SDS011;54190;49.770;9.250;2022-09-12T07:13:09;17.40;;;12.07;;
67272;SDS011;54190;49.770;9.250;2022-09-12T07:15:35;15.53;;;11.23;;
67272;SDS011;54190;49.770;9.250;2022-09-12T07:18:02;17.00;;;12.10;;
67272;SDS011;54190;49.770;9.250;2022-09-12T07:20:28;18.27;;;11.47;;
67272;SDS011;54190;49.770;9.250;2022-09-12T07:22:55;16.30;;;11.53;;
67272;SDS011;54190;49.770;9.250;2022-09-12T07:25:21;16.23;;;11.10;;
67272;SDS011;54190;49.770;9.250;2022-09-12T07:27:47;14.90;;;10.97;;
67272;SDS011;54190;49.770;9.250;2022-09-12T07:30:12;15.57;;;11.20;;
67272;SDS011;54190;49.770;9.250;2022-09-12T07:32:38;12.60;;;9.30;;
67272;SDS011;54190;49.770;9.250;2022-09-12T07:35:04;13.97;;;10.30;;
67272;SDS011;54190;49.770;9.250;2022-09-12T07:37:30;16.17;;;10.90;;
67272;SDS011;54190;49.770;9.250;2022-09-12T07:39:56;15.23;;;11.40;;
67272;SDS011;54190;49.770;9.250;2022-09-12T07:42:21;15.90;;;11.07;;
67272;SDS011;54190;49.770;9.250;2022-09-12T07:44:47;16.23;;;11.00;;
67272;SDS011;54190;49.770;9.250;2022-09-12T07:47:14;14.47;;;10.57;;
67272;SDS011;54190;49.770;9.250;2022-09-12T07:49:40;13.37;;;9.77;;
67272;SDS011;54190;49.770;9.250;2022-09-12T07:52:05;15.30;;;10.40;;
67272;SDS011;54190;49.770;9.250;2022-09-12T07:54:31;14.80;;;10.17;;
67272;SDS011;54190;49.770;9.250;2022-09-12T07:56:57;15.50;;;10.87;;
67272;SDS011;54190;49.770;9.250;2022-09-12T07:59:23;14.50;;;10.83;;
67272;SDS011;54190;49.770;9.250;2022-09-12T08:01:49;14.20;;;11.10;;
67272;SDS011;54190;49.770;9.250;2022-09-12T08:04:16;14.47;;;10.83;;
67272;SDS011;54190;49.770;9.250;2022-09-12T08:06:41;16.03;;;10.97;;
67272;SDS011;54190;49.770;9.250;2022-09-12T08:09:07;15.00;;;10.77;;
67272;SDS011;54190;49.770;9.250;2022-09-12T08:11:33;15.83;;;11.40;;
67272;SDS011;54190;49.770;9.250;2022-09-12T08:13:59;15.63;;;11.00;;
67272;SDS011;54190;49.770;9.250;2022-09-12T08:16:28;12.67;;;10.07;;
67272;SDS011;54190;49.770;9.250;2022-09-12T08:18:56;14.67;;;10.50;;
67272;SDS011;54190;49.770;9.250;2022-09-12T08:21:28;12.63;;;9.40;;
67272;SDS011;54190;49.770;9.250;2022-09-12T08:23:56;12.30;;;9.57;;
67272;SDS011;54190;49.770;9.250;2022-09-12T08:26:26;14.77;;;10.13;;
67272;SDS011;54190;49.770;9.250;2022-09-12T08:28:52;12.93;;;10.73;;
67272;SDS011;54190;49.770;9.250;2022-09-12T08:31:19;15.53;;;9.90;;
67272;SDS011;54190;49.770;9.250;2022-09-12T08:33:46;14.53;;;11.07;;
67272;SDS011;54190;49.770;9.250;2022-09-12T08:36:13;15.47;;;9.53;;
67272;SDS011;54190;49.770;9.250;2022-09-12T08:38:42;12.70;;;10.27;;
67272;SDS011;54190;49.770;9.250;2022-09-12T08:49:08;11.23;;;9.20;;
67272;SDS011;54190;49.770;9.250;2022-09-12T08:51:37;12.83;;;9.10;;
67272;SDS011;54190;49.770;9.250;2022-09-12T08:54:03;10.20;;;7.90;;
67272;SDS011;54190;49.770;9.250;2022-09-12T08:56:38;9.40;;;7.87;;
67272;SDS011;54190;49.770;9.250;2022-09-12T08:59:03;10.37;;;8.50;;
67272;SDS011;54190;49.770;9.250;2022-09-12T09:01:30;9.50;;;7.70;;
67272;SDS011;54190;49.770;9.250;2022-09-12T09:09:58;10.00;;;8.27;;
67272;SDS011;54190;49.770;9.250;2022-09-12T09:12:54;10.90;;;8.47;;
67272;SDS011;54190;49.770;9.250;2022-09-12T09:17:54;12.30;;;9.60;;
67272;SDS011;54190;49.770;9.250;2022-09-12T09:23:29;11.90;;;9.10;;
67272;SDS011;54190;49.770;9.250;2022-09-12T09:26:19;9.73;;;7.40;;
67272;SDS011;54190;49.770;9.250;2022-09-12T09:28:58;8.60;;;7.50;;
67272;SDS011;54190;49.770;9.250;2022-09-12T09:31:32;10.50;;;8.27;;
67272;SDS011;54190;49.770;9.250;2022-09-12T09:34:04;9.90;;;8.30;;
67272;SDS011;54190;49.770;9.250;2022-09-12T09:44:45;9.30;;;7.23;;
67272;SDS011;54190;49.770;9.250;2022-09-12T09:47:13;10.33;;;8.13;;
67272;SDS011;54190;49.770;9.250;2022-09-12T09:49:39;9.23;;;7.10;;
67272;SDS011;54190;49.770;9.250;2022-09-12T09:52:06;9.40;;;8.03;;
67272;SDS011;54190;49.770;9.250;2022-09-12T09:54:36;8.77;;;6.70;;
67272;SDS011;54190;49.770;9.250;2022-09-12T10:05:46;9.63;;;8.63;;
67272;SDS011;54190;49.770;9.250;2022-09-12T10:08:22;9.90;;;7.70;;
67272;SDS011;54190;49.770;9.250;2022-09-12T10:10:51;8.90;;;7.07;;
67272;SDS011;54190;49.770;9.250;2022-09-12T10:13:36;8.53;;;7.17;;
67272;SDS011;54190;49.770;9.250;2022-09-12T10:16:26;9.53;;;8.17;;
67272;SDS011;54190;49.770;9.250;2022-09-12T10:18:54;9.57;;;8.17;;
67272;SDS011;54190;49.770;9.250;2022-09-12T10:21:25;10.53;;;7.63;;
67272;SDS011;54190;49.770;9.250;2022-09-12T10:32:10;9.60;;;7.23;;
67272;SDS011;54190;49.770;9.250;2022-09-12T10:34:50;9.10;;;7.47;;
67272;SDS011;54190;49.770;9.250;2022-09-12T10:37:39;8.30;;;7.30;;
67272;SDS011;54190;49.770;9.250;2022-09-12T10:40:05;8.50;;;6.90;;
67272;SDS011;54190;49.770;9.250;2022-09-12T10:42:51;8.20;;;6.80;;
67272;SDS011;54190;49.770;9.250;2022-09-12T10:47:48;9.83;;;7.57;;
67272;SDS011;54190;49.770;9.250;2022-09-12T10:50:19;7.90;;;6.53;;
67272;SDS011;54190;49.770;9.250;2022-09-12T10:52:45;7.60;;;6.70;;
67272;SDS011;54190;49.770;9.250;2022-09-12T10:55:12;8.27;;;6.40;;
67272;SDS011;54190;49.770;9.250;2022-09-12T11:00:09;7.90;;;7.00;;
67272;SDS011;54190;49.770;9.250;2022-09-12T11:16:27;8.20;;;6.90;;
67272;SDS011;54190;49.770;9.250;2022-09-12T11:19:16;10.10;;;7.00;;
67272;SDS011;54190;49.770;9.250;2022-09-12T11:22:01;10.70;;;6.70;;
67272;SDS011;54190;49.770;9.250;2022-09-12T11:24:36;6.60;;;5.80;;
67272;SDS011;54190;49.770;9.250;2022-09-12T11:30:15;9.90;;;6.63;;
67272;SDS011;54190;49.770;9.250;2022-09-12T11:37:53;7.17;;;6.47;;
67272;SDS011;54190;49.770;9.250;2022-09-12T11:43:37;8.17;;;6.27;;
67272;SDS011;54190;49.770;9.250;2022-09-12T11:51:49;6.57;;;5.67;;
67272;SDS011;54190;49.770;9.250;2022-09-12T11:54:25;5.87;;;5.30;;
67272;SDS011;54190;49.770;9.250;2022-09-12T11:59:48;6.10;;;5.50;;
67272;SDS011;54190;49.770;9.250;2022-09-12T12:02:57;6.70;;;5.43;;
67272;SDS011;54190;49.770;9.250;2022-09-12T12:08:09;8.57;;;6.03;;
67272;SDS011;54190;49.770;9.250;2022-09-12T12:10:55;9.40;;;6.10;;
67272;SDS011;54190;49.770;9.250;2022-09-12T12:13:35;7.40;;;5.40;;
67272;SDS011;54190;49.770;9.250;2022-09-12T12:18:37;7.50;;;5.77;;
67272;SDS011;54190;49.770;9.250;2022-09-12T12:34:31;8.50;;;5.30;;
67272;SDS011;54190;49.770;9.250;2022-09-12T12:36:57;5.80;;;5.20;;
67272;SDS011;54190;49.770;9.250;2022-09-12T12:44:57;6.17;;;5.57;;
67272;SDS011;54190;49.770;9.250;2022-09-12T12:47:38;6.30;;;5.70;;
67272;SDS011;54190;49.770;9.250;2022-09-12T12:55:27;6.03;;;4.57;;
67272;SDS011;54190;49.770;9.250;2022-09-12T12:57:58;5.97;;;5.03;;
67272;SDS011;54190;49.770;9.250;2022-09-12T13:00:32;6.00;;;5.07;;
67272;SDS011;54190;49.770;9.250;2022-09-12T13:05:51;9.40;;;5.40;;
67272;SDS011;54190;49.770;9.250;2022-09-12T13:08:31;7.10;;;4.90;;
67272;SDS011;54190;49.770;9.250;2022-09-12T13:11:15;5.20;;;4.67;;
67272;SDS011;54190;49.770;9.250;2022-09-12T13:13:56;5.67;;;4.70;;
67272;SDS011;54190;49.770;9.250;2022-09-12T13:16:34;5.07;;;4.57;;
67272;SDS011;54190;49.770;9.250;2022-09-12T13:19:20;5.57;;;4.53;;
67272;SDS011;54190;49.770;9.250;2022-09-12T13:21:54;5.17;;;4.50;;
67272;SDS011;54190;49.770;9.250;2022-09-12T13:24:28;5.63;;;4.30;;
67272;SDS011;54190;49.770;9.250;2022-09-12T13:26:55;4.97;;;4.57;;
67272;SDS011;54190;49.770;9.250;2022-09-12T13:29:25;4.93;;;4.50;;
67272;SDS011;54190;49.770;9.250;2022-09-12T13:31:59;6.13;;;4.20;;
67272;SDS011;54190;49.770;9.250;2022-09-12T13:34:30;6.17;;;4.60;;
67272;SDS011;54190;49.770;9.250;2022-09-12T13:42:48;5.33;;;4.83;;
67272;SDS011;54190;49.770;9.250;2022-09-12T13:45:31;5.23;;;4.73;;
67272;SDS011;54190;49.770;9.250;2022-09-12T13:48:01;4.57;;;4.17;;
67272;SDS011;54190;49.770;9.250;2022-09-12T13:50:46;4.67;;;4.27;;
67272;SDS011;54190;49.770;9.250;2022-09-12T13:53:15;5.73;;;4.23;;
67272;SDS011;54190;49.770;9.250;2022-09-12T13:55:47;4.80;;;4.30;;
67272;SDS011;54190;49.770;9.250;2022-09-12T13:58:20;5.57;;;5.00;;
67272;SDS011;54190;49.770;9.250;2022-09-12T14:00:58;4.10;;;3.70;;
67272;SDS011;54190;49.770;9.250;2022-09-12T14:03:32;6.97;;;4.40;;
67272;SDS011;54190;49.770;9.250;2022-09-12T14:06:22;4.47;;;4.07;;
67272;SDS011;54190;49.770;9.250;2022-09-12T14:08:49;4.37;;;3.97;;
67272;SDS011;54190;49.770;9.250;2022-09-12T14:11:25;4.70;;;4.27;;
67272;SDS011;54190;49.770;9.250;2022-09-12T14:13:52;5.03;;;4.17;;
67272;SDS011;54190;49.770;9.250;2022-09-12T14:16:20;4.43;;;3.80;;
67272;SDS011;54190;49.770;9.250;2022-09-12T14:18:48;5.07;;;4.33;;
67272;SDS011;54190;49.770;9.250;2022-09-12T14:24:05;4.40;;;4.00;;
67272;SDS011;54190;49.770;9.250;2022-09-12T14:26:33;5.00;;;4.50;;
67272;SDS011;54190;49.770;9.250;2022-09-12T14:29:03;4.47;;;4.07;;
67272;SDS011;54190;49.770;9.250;2022-09-12T14:31:31;5.20;;;4.00;;
67272;SDS011;54190;49.770;9.250;2022-09-12T14:34:09;4.60;;;4.20;;
67272;SDS011;54190;49.770;9.250;2022-09-12T14:36:49;4.20;;;3.80;;
67272;SDS011;54190;49.770;9.250;2022-09-12T14:42:04;4.10;;;3.70;;
67272;SDS011;54190;49.770;9.250;2022-09-12T14:44:35;4.80;;;4.30;;
67272;SDS011;54190;49.770;9.250;2022-09-12T14:47:11;4.37;;;3.97;;
67272;SDS011;54190;49.770;9.250;2022-09-12T14:49:42;5.17;;;3.87;;
67272;SDS011;54190;49.770;9.250;2022-09-12T14:52:42;3.57;;;3.27;;
67272;SDS011;54190;49.770;9.250;2022-09-12T14:57:42;4.60;;;4.20;;
67272;SDS011;54190;49.770;9.250;2022-09-12T15:02:47;4.10;;;3.60;;
67272;SDS011;54190;49.770;9.250;2022-09-12T15:05:15;4.50;;;3.67;;
67272;SDS011;54190;49.770;9.250;2022-09-12T15:07:44;4.60;;;4.13;;
67272;SDS011;54190;49.770;9.250;2022-09-12T15:10:22;4.27;;;3.80;;
67272;SDS011;54190;49.770;9.250;2022-09-12T15:15:33;4.30;;;3.90;;
67272;SDS011;54190;49.770;9.250;2022-09-12T15:18:00;5.10;;;4.50;;
67272;SDS011;54190;49.770;9.250;2022-09-12T15:20:26;5.37;;;3.90;;
67272;SDS011;54190;49.770;9.250;2022-09-12T15:22:52;4.23;;;3.83;;
67272;SDS011;54190;49.770;9.250;2022-09-12T15:25:18;4.20;;;3.80;;
67272;SDS011;54190;49.770;9.250;2022-09-12T15:27:44;4.93;;;3.80;;
67272;SDS011;54190;49.770;9.250;2022-09-12T15:30:11;4.27;;;3.87;;
67272;SDS011;54190;49.770;9.250;2022-09-12T15:32:38;4.63;;;3.93;;
67272;SDS011;54190;49.770;9.250;2022-09-12T15:35:19;4.27;;;3.87;;
67272;SDS011;54190;49.770;9.250;2022-09-12T15:37:47;5.40;;;3.90;;
67272;SDS011;54190;49.770;9.250;2022-09-12T15:40:13;4.07;;;3.73;;
67272;SDS011;54190;49.770;9.250;2022-09-12T15:42:40;4.80;;;3.70;;
67272;SDS011;54190;49.770;9.250;2022-09-12T15:45:14;4.00;;;3.57;;
67272;SDS011;54190;49.770;9.250;2022-09-12T15:47:41;3.90;;;3.60;;
67272;SDS011;54190;49.770;9.250;2022-09-12T15:50:07;3.73;;;3.40;;
67272;SDS011;54190;49.770;9.250;2022-09-12T15:52:33;4.20;;;3.80;;
67272;SDS011;54190;49.770;9.250;2022-09-12T15:54:58;4.60;;;3.40;;
67272;SDS011;54190;49.770;9.250;2022-09-12T15:57:24;4.17;;;3.77;;
67272;SDS011;54190;49.770;9.250;2022-09-12T15:59:50;4.53;;;4.13;;
67272;SDS011;54190;49.770;9.250;2022-09-12T16:02:15;3.97;;;3.57;;
67272;SDS011;54190;49.770;9.250;2022-09-12T16:04:41;4.10;;;3.60;;
67272;SDS011;54190;49.770;9.250;2022-09-12T16:07:07;4.00;;;3.70;;
67272;SDS011;54190;49.770;9.250;2022-09-12T16:09:33;5.73;;;4.20;;
67272;SDS011;54190;49.770;9.250;2022-09-12T16:11:59;5.30;;;4.07;;
67272;SDS011;54190;49.770;9.250;2022-09-12T16:14:24;4.10;;;3.70;;
67272;SDS011;54190;49.770;9.250;2022-09-12T16:16:51;5.17;;;4.27;;
67272;SDS011;54190;49.770;9.250;2022-09-12T16:19:18;5.20;;;4.00;;
67272;SDS011;54190;49.770;9.250;2022-09-12T16:21:44;5.67;;;3.80;;
67272;SDS011;54190;49.770;9.250;2022-09-12T16:24:10;5.07;;;4.40;;
67272;SDS011;54190;49.770;9.250;2022-09-12T16:26:35;5.03;;;4.33;;
67272;SDS011;54190;49.770;9.250;2022-09-12T16:29:01;4.90;;;4.10;;
67272;SDS011;54190;49.770;9.250;2022-09-12T16:31:27;7.13;;;3.93;;
67272;SDS011;54190;49.770;9.250;2022-09-12T16:33:53;6.50;;;4.37;;
67272;SDS011;54190;49.770;9.250;2022-09-12T16:36:20;5.00;;;4.50;;
67272;SDS011;54190;49.770;9.250;2022-09-12T16:38:50;4.43;;;4.00;;
67272;SDS011;54190;49.770;9.250;2022-09-12T16:41:20;4.40;;;4.00;;
67272;SDS011;54190;49.770;9.250;2022-09-12T16:43:50;4.40;;;4.00;;
67272;SDS011;54190;49.770;9.250;2022-09-12T16:46:17;4.63;;;4.23;;
67272;SDS011;54190;49.770;9.250;2022-09-12T16:48:48;4.90;;;4.40;;
67272;SDS011;54190;49.770;9.250;2022-09-12T16:51:16;6.97;;;4.80;;
67272;SDS011;54190;49.770;9.250;2022-09-12T16:53:44;4.93;;;4.43;;
67272;SDS011;54190;49.770;9.250;2022-09-12T16:56:10;4.63;;;4.23;;
67272;SDS011;54190;49.770;9.250;2022-09-12T16:58:43;4.47;;;4.03;;
67272;SDS011;54190;49.770;9.250;2022-09-12T17:01:13;7.90;;;4.90;;
67272;SDS011;54190;49.770;9.250;2022-09-12T17:03:40;11.60;;;4.93;;
67272;SDS011;54190;49.770;9.250;2022-09-12T17:06:16;4.37;;;3.97;;
67272;SDS011;54190;49.770;9.250;2022-09-12T17:08:46;4.90;;;4.40;;
67272;SDS011;54190;49.770;9.250;2022-09-12T17:11:18;8.30;;;4.20;;
67272;SDS011;54190;49.770;9.250;2022-09-12T17:13:52;5.20;;;4.37;;
67272;SDS011;54190;49.770;9.250;2022-09-12T17:16:18;6.10;;;4.60;;
67272;SDS011;54190;49.770;9.250;2022-09-12T17:18:44;6.23;;;4.30;;
67272;SDS011;54190;49.770;9.250;2022-09-12T17:21:12;5.63;;;4.83;;
67272;SDS011;54190;49.770;9.250;2022-09-12T17:23:39;5.37;;;4.20;;
67272;SDS011;54190;49.770;9.250;2022-09-12T17:26:05;10.23;;;4.67;;
67272;SDS011;54190;49.770;9.250;2022-09-12T17:28:31;5.73;;;4.30;;
67272;SDS011;54190;49.770;9.250;2022-09-12T17:30:58;5.20;;;4.70;;
67272;SDS011;54190;49.770;9.250;2022-09-12T17:33:25;7.40;;;4.90;;
67272;SDS011;54190;49.770;9.250;2022-09-12T17:35:52;12.93;;;4.60;;
67272;SDS011;54190;49.770;9.250;2022-09-12T17:38:18;4.93;;;4.30;;
67272;SDS011;54190;49.770;9.250;2022-09-12T17:40:45;5.30;;;4.43;;
67272;SDS011;54190;49.770;9.250;2022-09-12T17:43:14;6.70;;;4.97;;
67272;SDS011;54190;49.770;9.250;2022-09-12T17:45:40;5.43;;;4.20;;
67272;SDS011;54190;49.770;9.250;2022-09-12T17:48:06;5.80;;;4.77;;
67272;SDS011;54190;49.770;9.250;2022-09-12T17:50:38;5.53;;;4.60;;
67272;SDS011;54190;49.770;9.250;2022-09-12T17:53:05;5.53;;;4.80;;